PASN/SNP METAR and TAF weather

Enter ICAO airport designator
Station Type Date Time Source
PASN METAR 2020/01/18 12:53 UTC NOAA

PASN 181253Z AUTO 09015KT 10SM FEW025 BKN043 BKN070 01/M02 A2939 RMK AO2 UPB1154E1155SNE1154B1155E37 SLP953 P0000 T00061017 TSNO $


Station Type Date Time Source
PASN Decoded METAR 2020/01/18 12:53 UTC NOAA

ST PAUL ISLAND AIRPORT, AK, United States (PASN) 57-10N 170-13W 9M
Jan 18, 2020 - 07:53 AM EST / 2020.01.18 1253 UTC
Wind: from the E (090 degrees) at 17 MPH (15 KT):0
Visibility: 10 mile(s):0
Sky conditions: mostly cloudy
Precipitation last hour: A trace
Temperature: 33.1 F (0.6 C)
Windchill: 23 F (-5 C):1
Dew Point: 28.9 F (-1.7 C)
Relative Humidity: 84%
Pressure (altimeter): 29.39 in. Hg (995 hPa)
ob: PASN 181253Z AUTO 09015KT 10SM FEW025 BKN043 BKN070 01/M02 A2939 RMK AO2 UPB1154E1155SNE1154B1155E37 SLP953 P0000 T00061017 TSNO
cycle: 13

Station Type Date Time Source
PASN TAF 2020/01/18 12:27 UTC NOAA

TAF PASN 181125Z 1812/1912 11015KT 6SM -SHSN SCT025 OVC050
TEMPO 1812/1816 OVC025

Example: see airport list